sensor_id;sensor_type;location;lat;lon;timestamp;P1;durP1;ratioP1;P2;durP2;ratioP2
70832;SDS011;58452;59.418;17.962;2023-02-23T00:03:37;8.55;;;4.68;;
70832;SDS011;58452;59.418;17.962;2023-02-23T00:06:02;6.47;;;4.13;;
70832;SDS011;58452;59.418;17.962;2023-02-23T00:08:28;6.60;;;4.22;;
70832;SDS011;58452;59.418;17.962;2023-02-23T00:10:54;7.43;;;4.13;;
70832;SDS011;58452;59.418;17.962;2023-02-23T00:13:22;7.45;;;3.83;;
70832;SDS011;58452;59.418;17.962;2023-02-23T00:15:48;9.18;;;4.45;;
70832;SDS011;58452;59.418;17.962;2023-02-23T00:18:13;5.53;;;4.05;;
70832;SDS011;58452;59.418;17.962;2023-02-23T00:20:38;5.93;;;3.85;;
70832;SDS011;58452;59.418;17.962;2023-02-23T00:23:08;10.65;;;4.80;;
70832;SDS011;58452;59.418;17.962;2023-02-23T00:25:36;7.00;;;4.50;;
70832;SDS011;58452;59.418;17.962;2023-02-23T00:28:03;6.63;;;4.18;;
70832;SDS011;58452;59.418;17.962;2023-02-23T00:30:31;6.15;;;4.05;;
70832;SDS011;58452;59.418;17.962;2023-02-23T00:32:58;7.07;;;4.40;;
70832;SDS011;58452;59.418;17.962;2023-02-23T00:35:23;8.45;;;3.70;;
70832;SDS011;58452;59.418;17.962;2023-02-23T00:37:49;6.65;;;3.80;;
70832;SDS011;58452;59.418;17.962;2023-02-23T00:40:15;4.40;;;3.17;;
70832;SDS011;58452;59.418;17.962;2023-02-23T00:42:44;4.45;;;3.45;;
70832;SDS011;58452;59.418;17.962;2023-02-23T00:45:14;4.70;;;3.17;;
70832;SDS011;58452;59.418;17.962;2023-02-23T00:47:40;4.50;;;3.50;;
70832;SDS011;58452;59.418;17.962;2023-02-23T00:50:09;5.57;;;4.03;;
70832;SDS011;58452;59.418;17.962;2023-02-23T00:52:42;6.07;;;3.70;;
70832;SDS011;58452;59.418;17.962;2023-02-23T00:55:09;4.82;;;3.40;;
70832;SDS011;58452;59.418;17.962;2023-02-23T00:57:35;4.70;;;3.17;;
70832;SDS011;58452;59.418;17.962;2023-02-23T01:00:02;6.05;;;3.40;;
70832;SDS011;58452;59.418;17.962;2023-02-23T01:02:38;3.70;;;2.80;;
70832;SDS011;58452;59.418;17.962;2023-02-23T01:05:04;7.47;;;2.88;;
70832;SDS011;58452;59.418;17.962;2023-02-23T01:07:29;3.75;;;2.55;;
70832;SDS011;58452;59.418;17.962;2023-02-23T01:09:55;3.65;;;2.92;;
70832;SDS011;58452;59.418;17.962;2023-02-23T01:12:20;4.32;;;2.80;;
70832;SDS011;58452;59.418;17.962;2023-02-23T01:14:46;3.30;;;2.38;;
70832;SDS011;58452;59.418;17.962;2023-02-23T01:17:11;5.50;;;2.47;;
70832;SDS011;58452;59.418;17.962;2023-02-23T01:19:37;4.13;;;2.75;;
70832;SDS011;58452;59.418;17.962;2023-02-23T01:22:03;4.43;;;2.65;;
70832;SDS011;58452;59.418;17.962;2023-02-23T01:24:29;4.22;;;2.90;;
70832;SDS011;58452;59.418;17.962;2023-02-23T01:26:54;6.20;;;3.00;;
70832;SDS011;58452;59.418;17.962;2023-02-23T01:29:19;4.20;;;2.53;;
70832;SDS011;58452;59.418;17.962;2023-02-23T01:31:46;4.22;;;2.78;;
70832;SDS011;58452;59.418;17.962;2023-02-23T01:34:13;3.70;;;2.75;;
70832;SDS011;58452;59.418;17.962;2023-02-23T01:36:40;4.15;;;2.85;;
70832;SDS011;58452;59.418;17.962;2023-02-23T01:39:07;3.20;;;2.25;;
70832;SDS011;58452;59.418;17.962;2023-02-23T01:41:36;5.22;;;2.60;;
70832;SDS011;58452;59.418;17.962;2023-02-23T01:44:07;3.85;;;2.25;;
70832;SDS011;58452;59.418;17.962;2023-02-23T01:46:52;3.17;;;2.20;;
70832;SDS011;58452;59.418;17.962;2023-02-23T01:49:28;3.50;;;2.40;;
70832;SDS011;58452;59.418;17.962;2023-02-23T01:52:04;3.47;;;2.42;;
70832;SDS011;58452;59.418;17.962;2023-02-23T01:54:38;5.68;;;2.55;;
70832;SDS011;58452;59.418;17.962;2023-02-23T01:57:07;3.00;;;2.28;;
70832;SDS011;58452;59.418;17.962;2023-02-23T01:59:40;3.55;;;2.67;;
70832;SDS011;58452;59.418;17.962;2023-02-23T02:02:08;2.78;;;2.13;;
70832;SDS011;58452;59.418;17.962;2023-02-23T02:04:35;3.30;;;2.33;;
70832;SDS011;58452;59.418;17.962;2023-02-23T02:07:19;4.03;;;2.35;;
70832;SDS011;58452;59.418;17.962;2023-02-23T02:09:47;4.68;;;2.80;;
70832;SDS011;58452;59.418;17.962;2023-02-23T02:12:33;3.55;;;2.67;;
70832;SDS011;58452;59.418;17.962;2023-02-23T02:14:59;4.55;;;3.10;;
70832;SDS011;58452;59.418;17.962;2023-02-23T02:20:37;3.28;;;2.83;;
70832;SDS011;58452;59.418;17.962;2023-02-23T02:39:56;6.50;;;2.78;;
70832;SDS011;58452;59.418;17.962;2023-02-23T02:48:09;2.85;;;2.30;;
70832;SDS011;58452;59.418;17.962;2023-02-23T02:50:50;6.15;;;3.05;;
70832;SDS011;58452;59.418;17.962;2023-02-23T02:56:09;3.53;;;2.50;;
70832;SDS011;58452;59.418;17.962;2023-02-23T02:58:37;3.40;;;2.40;;
70832;SDS011;58452;59.418;17.962;2023-02-23T03:01:11;4.07;;;2.58;;
70832;SDS011;58452;59.418;17.962;2023-02-23T03:03:57;4.60;;;2.95;;
70832;SDS011;58452;59.418;17.962;2023-02-23T03:06:45;4.85;;;3.70;;
70832;SDS011;58452;59.418;17.962;2023-02-23T03:09:43;5.75;;;2.95;;
70832;SDS011;58452;59.418;17.962;2023-02-23T03:12:54;5.68;;;2.95;;
70832;SDS011;58452;59.418;17.962;2023-02-23T03:15:53;6.10;;;3.53;;
70832;SDS011;58452;59.418;17.962;2023-02-23T03:24:48;4.88;;;2.40;;
70832;SDS011;58452;59.418;17.962;2023-02-23T03:27:53;3.03;;;2.55;;
70832;SDS011;58452;59.418;17.962;2023-02-23T03:34:22;4.20;;;2.85;;
70832;SDS011;58452;59.418;17.962;2023-02-23T03:37:17;4.83;;;2.50;;
70832;SDS011;58452;59.418;17.962;2023-02-23T03:40:04;4.32;;;2.67;;
70832;SDS011;58452;59.418;17.962;2023-02-23T03:42:58;5.20;;;2.45;;
70832;SDS011;58452;59.418;17.962;2023-02-23T03:45:48;4.80;;;2.75;;
70832;SDS011;58452;59.418;17.962;2023-02-23T03:48:34;4.45;;;3.03;;
70832;SDS011;58452;59.418;17.962;2023-02-23T03:51:20;4.37;;;3.33;;
70832;SDS011;58452;59.418;17.962;2023-02-23T03:54:12;7.22;;;3.17;;
70832;SDS011;58452;59.418;17.962;2023-02-23T03:57:02;3.92;;;2.58;;
70832;SDS011;58452;59.418;17.962;2023-02-23T03:59:56;2.72;;;1.90;;
70832;SDS011;58452;59.418;17.962;2023-02-23T04:02:44;5.40;;;2.40;;
70832;SDS011;58452;59.418;17.962;2023-02-23T04:05:33;3.00;;;2.28;;
70832;SDS011;58452;59.418;17.962;2023-02-23T04:08:20;5.18;;;2.85;;
70832;SDS011;58452;59.418;17.962;2023-02-23T04:14:32;5.38;;;1.98;;
70832;SDS011;58452;59.418;17.962;2023-02-23T04:17:03;6.40;;;2.53;;
70832;SDS011;58452;59.418;17.962;2023-02-23T04:19:31;7.57;;;2.75;;
70832;SDS011;58452;59.418;17.962;2023-02-23T04:21:56;2.75;;;2.10;;
70832;SDS011;58452;59.418;17.962;2023-02-23T04:24:22;2.85;;;2.30;;
70832;SDS011;58452;59.418;17.962;2023-02-23T04:26:47;3.80;;;2.42;;
70832;SDS011;58452;59.418;17.962;2023-02-23T04:29:13;3.88;;;2.33;;
70832;SDS011;58452;59.418;17.962;2023-02-23T04:31:39;6.68;;;2.00;;
70832;SDS011;58452;59.418;17.962;2023-02-23T04:34:05;3.70;;;2.45;;
70832;SDS011;58452;59.418;17.962;2023-02-23T04:36:31;3.42;;;2.45;;
70832;SDS011;58452;59.418;17.962;2023-02-23T04:38:57;3.58;;;2.53;;
70832;SDS011;58452;59.418;17.962;2023-02-23T04:41:22;4.90;;;3.40;;
70832;SDS011;58452;59.418;17.962;2023-02-23T04:43:48;5.50;;;2.50;;
70832;SDS011;58452;59.418;17.962;2023-02-23T04:46:14;7.30;;;3.13;;
70832;SDS011;58452;59.418;17.962;2023-02-23T04:48:39;4.70;;;2.38;;
70832;SDS011;58452;59.418;17.962;2023-02-23T04:51:04;5.43;;;2.47;;
70832;SDS011;58452;59.418;17.962;2023-02-23T04:53:30;5.80;;;2.72;;
70832;SDS011;58452;59.418;17.962;2023-02-23T04:55:56;4.75;;;2.50;;
70832;SDS011;58452;59.418;17.962;2023-02-23T04:58:21;5.03;;;3.17;;
70832;SDS011;58452;59.418;17.962;2023-02-23T05:00:47;6.88;;;3.67;;
70832;SDS011;58452;59.418;17.962;2023-02-23T05:03:12;5.20;;;2.65;;
70832;SDS011;58452;59.418;17.962;2023-02-23T05:05:38;6.50;;;2.67;;
70832;SDS011;58452;59.418;17.962;2023-02-23T05:08:03;3.38;;;2.50;;
70832;SDS011;58452;59.418;17.962;2023-02-23T05:10:29;4.50;;;2.80;;
70832;SDS011;58452;59.418;17.962;2023-02-23T05:12:55;4.63;;;2.45;;
70832;SDS011;58452;59.418;17.962;2023-02-23T05:15:21;4.28;;;2.90;;
70832;SDS011;58452;59.418;17.962;2023-02-23T05:17:47;5.63;;;3.28;;
70832;SDS011;58452;59.418;17.962;2023-02-23T05:20:13;4.07;;;2.53;;
70832;SDS011;58452;59.418;17.962;2023-02-23T05:22:38;4.07;;;2.47;;
70832;SDS011;58452;59.418;17.962;2023-02-23T05:25:05;3.03;;;2.20;;
70832;SDS011;58452;59.418;17.962;2023-02-23T05:27:31;5.30;;;2.72;;
70832;SDS011;58452;59.418;17.962;2023-02-23T05:29:58;3.80;;;2.70;;
70832;SDS011;58452;59.418;17.962;2023-02-23T05:32:24;5.18;;;2.42;;
70832;SDS011;58452;59.418;17.962;2023-02-23T05:34:49;4.95;;;3.13;;
70832;SDS011;58452;59.418;17.962;2023-02-23T05:37:14;5.22;;;3.20;;
70832;SDS011;58452;59.418;17.962;2023-02-23T05:39:40;5.25;;;3.03;;
70832;SDS011;58452;59.418;17.962;2023-02-23T05:42:05;5.53;;;2.67;;
70832;SDS011;58452;59.418;17.962;2023-02-23T05:44:31;3.92;;;2.85;;
70832;SDS011;58452;59.418;17.962;2023-02-23T05:46:56;4.20;;;3.00;;
70832;SDS011;58452;59.418;17.962;2023-02-23T05:49:22;6.03;;;2.88;;
70832;SDS011;58452;59.418;17.962;2023-02-23T05:51:48;5.60;;;2.55;;
70832;SDS011;58452;59.418;17.962;2023-02-23T05:54:13;5.75;;;3.80;;
70832;SDS011;58452;59.418;17.962;2023-02-23T05:56:40;5.97;;;3.28;;
70832;SDS011;58452;59.418;17.962;2023-02-23T05:59:06;7.60;;;3.55;;
70832;SDS011;58452;59.418;17.962;2023-02-23T06:01:32;5.88;;;3.78;;
70832;SDS011;58452;59.418;17.962;2023-02-23T06:03:57;11.63;;;4.45;;
70832;SDS011;58452;59.418;17.962;2023-02-23T06:06:23;6.78;;;4.35;;
70832;SDS011;58452;59.418;17.962;2023-02-23T06:08:50;7.38;;;3.50;;
70832;SDS011;58452;59.418;17.962;2023-02-23T06:11:16;12.48;;;4.40;;
70832;SDS011;58452;59.418;17.962;2023-02-23T06:13:41;7.30;;;3.88;;
70832;SDS011;58452;59.418;17.962;2023-02-23T06:16:07;6.47;;;3.55;;
70832;SDS011;58452;59.418;17.962;2023-02-23T06:18:33;5.47;;;3.00;;
70832;SDS011;58452;59.418;17.962;2023-02-23T06:20:59;10.27;;;5.40;;
70832;SDS011;58452;59.418;17.962;2023-02-23T06:23:28;6.32;;;3.55;;
70832;SDS011;58452;59.418;17.962;2023-02-23T06:25:55;4.93;;;4.25;;
70832;SDS011;58452;59.418;17.962;2023-02-23T06:28:22;6.55;;;3.83;;
70832;SDS011;58452;59.418;17.962;2023-02-23T06:30:50;4.20;;;3.20;;
70832;SDS011;58452;59.418;17.962;2023-02-23T06:33:16;6.43;;;4.05;;
70832;SDS011;58452;59.418;17.962;2023-02-23T06:35:42;6.13;;;3.20;;
70832;SDS011;58452;59.418;17.962;2023-02-23T06:38:08;9.70;;;3.95;;
70832;SDS011;58452;59.418;17.962;2023-02-23T06:40:33;4.60;;;3.40;;
70832;SDS011;58452;59.418;17.962;2023-02-23T06:42:59;7.03;;;3.38;;
70832;SDS011;58452;59.418;17.962;2023-02-23T06:45:24;7.22;;;3.10;;
70832;SDS011;58452;59.418;17.962;2023-02-23T06:47:50;15.20;;;3.65;;
70832;SDS011;58452;59.418;17.962;2023-02-23T06:50:17;5.50;;;4.03;;
70832;SDS011;58452;59.418;17.962;2023-02-23T06:52:43;7.53;;;3.83;;
70832;SDS011;58452;59.418;17.962;2023-02-23T06:55:09;5.07;;;4.00;;
70832;SDS011;58452;59.418;17.962;2023-02-23T06:57:35;6.25;;;3.22;;
70832;SDS011;58452;59.418;17.962;2023-02-23T07:00:00;6.38;;;4.43;;
70832;SDS011;58452;59.418;17.962;2023-02-23T07:02:26;3.88;;;3.08;;
70832;SDS011;58452;59.418;17.962;2023-02-23T07:04:52;5.85;;;3.78;;
70832;SDS011;58452;59.418;17.962;2023-02-23T07:07:17;5.95;;;3.53;;
70832;SDS011;58452;59.418;17.962;2023-02-23T07:09:43;5.85;;;3.13;;
70832;SDS011;58452;59.418;17.962;2023-02-23T07:12:08;7.07;;;3.65;;
70832;SDS011;58452;59.418;17.962;2023-02-23T07:14:35;5.63;;;3.35;;
70832;SDS011;58452;59.418;17.962;2023-02-23T07:17:04;5.70;;;3.42;;
70832;SDS011;58452;59.418;17.962;2023-02-23T07:19:30;5.32;;;3.47;;
70832;SDS011;58452;59.418;17.962;2023-02-23T07:21:56;3.38;;;3.05;;
70832;SDS011;58452;59.418;17.962;2023-02-23T07:24:22;6.50;;;3.83;;
70832;SDS011;58452;59.418;17.962;2023-02-23T07:26:47;8.70;;;3.28;;
70832;SDS011;58452;59.418;17.962;2023-02-23T07:29:13;4.85;;;2.95;;
70832;SDS011;58452;59.418;17.962;2023-02-23T07:31:39;5.05;;;3.15;;
70832;SDS011;58452;59.418;17.962;2023-02-23T07:34:05;5.93;;;3.72;;
70832;SDS011;58452;59.418;17.962;2023-02-23T07:36:31;8.07;;;3.40;;
70832;SDS011;58452;59.418;17.962;2023-02-23T07:38:57;5.40;;;3.88;;
70832;SDS011;58452;59.418;17.962;2023-02-23T07:41:23;4.78;;;2.83;;
70832;SDS011;58452;59.418;17.962;2023-02-23T07:43:49;6.07;;;2.90;;
70832;SDS011;58452;59.418;17.962;2023-02-23T07:46:14;3.47;;;2.55;;
70832;SDS011;58452;59.418;17.962;2023-02-23T07:48:40;6.35;;;3.83;;
70832;SDS011;58452;59.418;17.962;2023-02-23T07:51:09;8.00;;;3.80;;
70832;SDS011;58452;59.418;17.962;2023-02-23T07:53:36;4.22;;;3.08;;
70832;SDS011;58452;59.418;17.962;2023-02-23T07:56:03;6.45;;;2.70;;
70832;SDS011;58452;59.418;17.962;2023-02-23T07:58:29;5.05;;;3.28;;
70832;SDS011;58452;59.418;17.962;2023-02-23T08:00:57;4.10;;;2.80;;
70832;SDS011;58452;59.418;17.962;2023-02-23T08:03:22;6.43;;;3.08;;
70832;SDS011;58452;59.418;17.962;2023-02-23T08:05:48;3.67;;;2.92;;
70832;SDS011;58452;59.418;17.962;2023-02-23T08:08:14;3.53;;;2.72;;
70832;SDS011;58452;59.418;17.962;2023-02-23T08:10:39;6.85;;;3.05;;
70832;SDS011;58452;59.418;17.962;2023-02-23T08:13:05;5.07;;;2.78;;
70832;SDS011;58452;59.418;17.962;2023-02-23T08:15:30;6.72;;;3.38;;
70832;SDS011;58452;59.418;17.962;2023-02-23T08:17:56;3.35;;;2.60;;
70832;SDS011;58452;59.418;17.962;2023-02-23T08:20:22;5.97;;;3.25;;
70832;SDS011;58452;59.418;17.962;2023-02-23T08:22:52;5.10;;;3.53;;
70832;SDS011;58452;59.418;17.962;2023-02-23T08:25:18;5.15;;;2.88;;
70832;SDS011;58452;59.418;17.962;2023-02-23T08:27:43;10.07;;;3.58;;
70832;SDS011;58452;59.418;17.962;2023-02-23T08:30:09;4.75;;;3.63;;
70832;SDS011;58452;59.418;17.962;2023-02-23T08:32:38;4.32;;;2.55;;
70832;SDS011;58452;59.418;17.962;2023-02-23T08:35:03;3.95;;;2.22;;
70832;SDS011;58452;59.418;17.962;2023-02-23T08:37:31;4.93;;;2.63;;
70832;SDS011;58452;59.418;17.962;2023-02-23T08:39:56;5.10;;;2.80;;
70832;SDS011;58452;59.418;17.962;2023-02-23T08:42:23;6.90;;;2.53;;
70832;SDS011;58452;59.418;17.962;2023-02-23T08:44:48;3.83;;;2.53;;
70832;SDS011;58452;59.418;17.962;2023-02-23T08:47:14;4.63;;;2.85;;
70832;SDS011;58452;59.418;17.962;2023-02-23T08:49:45;3.95;;;2.33;;
70832;SDS011;58452;59.418;17.962;2023-02-23T08:52:11;4.22;;;2.10;;
70832;SDS011;58452;59.418;17.962;2023-02-23T08:54:36;4.68;;;2.67;;
70832;SDS011;58452;59.418;17.962;2023-02-23T08:57:02;6.00;;;2.10;;
70832;SDS011;58452;59.418;17.962;2023-02-23T08:59:27;5.82;;;2.30;;
70832;SDS011;58452;59.418;17.962;2023-02-23T09:01:52;9.18;;;4.35;;
70832;SDS011;58452;59.418;17.962;2023-02-23T09:04:18;3.38;;;2.15;;
70832;SDS011;58452;59.418;17.962;2023-02-23T09:06:44;4.85;;;2.38;;
70832;SDS011;58452;59.418;17.962;2023-02-23T09:09:11;5.50;;;2.63;;
70832;SDS011;58452;59.418;17.962;2023-02-23T09:11:37;5.22;;;2.80;;
70832;SDS011;58452;59.418;17.962;2023-02-23T09:14:02;4.93;;;1.80;;
70832;SDS011;58452;59.418;17.962;2023-02-23T09:16:28;3.25;;;2.45;;
70832;SDS011;58452;59.418;17.962;2023-02-23T09:18:53;3.58;;;2.35;;
70832;SDS011;58452;59.418;17.962;2023-02-23T09:21:20;5.55;;;2.38;;
70832;SDS011;58452;59.418;17.962;2023-02-23T09:23:49;4.22;;;1.70;;
70832;SDS011;58452;59.418;17.962;2023-02-23T09:26:17;3.25;;;2.10;;
70832;SDS011;58452;59.418;17.962;2023-02-23T09:28:43;3.50;;;1.98;;
70832;SDS011;58452;59.418;17.962;2023-02-23T09:31:10;4.28;;;2.70;;
70832;SDS011;58452;59.418;17.962;2023-02-23T09:33:36;3.58;;;2.42;;
70832;SDS011;58452;59.418;17.962;2023-02-23T09:36:08;11.88;;;4.05;;
70832;SDS011;58452;59.418;17.962;2023-02-23T09:38:46;3.55;;;2.65;;
70832;SDS011;58452;59.418;17.962;2023-02-23T09:46:50;6.93;;;3.42;;
70832;SDS011;58452;59.418;17.962;2023-02-23T09:49:30;2.88;;;2.05;;
70832;SDS011;58452;59.418;17.962;2023-02-23T09:51:59;4.30;;;2.53;;
70832;SDS011;58452;59.418;17.962;2023-02-23T09:54:28;4.20;;;3.38;;
70832;SDS011;58452;59.418;17.962;2023-02-23T09:56:57;3.88;;;2.65;;
70832;SDS011;58452;59.418;17.962;2023-02-23T09:59:27;7.13;;;3.03;;
70832;SDS011;58452;59.418;17.962;2023-02-23T10:12:21;4.50;;;3.08;;
70832;SDS011;58452;59.418;17.962;2023-02-23T10:20:06;5.95;;;3.03;;
70832;SDS011;58452;59.418;17.962;2023-02-23T10:22:41;3.92;;;2.88;;
70832;SDS011;58452;59.418;17.962;2023-02-23T10:25:16;5.95;;;3.45;;
70832;SDS011;58452;59.418;17.962;2023-02-23T10:27:48;4.80;;;2.67;;
70832;SDS011;58452;59.418;17.962;2023-02-23T10:30:18;7.03;;;3.60;;
70832;SDS011;58452;59.418;17.962;2023-02-23T10:35:27;4.82;;;2.95;;
70832;SDS011;58452;59.418;17.962;2023-02-23T10:37:54;3.20;;;2.53;;
70832;SDS011;58452;59.418;17.962;2023-02-23T10:40:21;4.07;;;2.70;;
70832;SDS011;58452;59.418;17.962;2023-02-23T10:42:49;5.50;;;2.90;;
70832;SDS011;58452;59.418;17.962;2023-02-23T10:45:17;4.25;;;2.58;;
70832;SDS011;58452;59.418;17.962;2023-02-23T10:47:51;2.97;;;2.30;;
70832;SDS011;58452;59.418;17.962;2023-02-23T10:50:18;3.85;;;2.97;;
70832;SDS011;58452;59.418;17.962;2023-02-23T10:52:46;5.30;;;2.75;;
70832;SDS011;58452;59.418;17.962;2023-02-23T10:55:28;4.63;;;2.90;;
70832;SDS011;58452;59.418;17.962;2023-02-23T11:00:37;4.75;;;3.05;;
70832;SDS011;58452;59.418;17.962;2023-02-23T11:03:15;6.50;;;2.90;;
70832;SDS011;58452;59.418;17.962;2023-02-23T11:05:46;6.57;;;2.88;;
70832;SDS011;58452;59.418;17.962;2023-02-23T11:08:27;3.80;;;2.95;;
70832;SDS011;58452;59.418;17.962;2023-02-23T11:10:58;4.97;;;2.90;;
70832;SDS011;58452;59.418;17.962;2023-02-23T11:13:27;6.70;;;3.55;;
70832;SDS011;58452;59.418;17.962;2023-02-23T11:16:21;7.18;;;2.78;;
70832;SDS011;58452;59.418;17.962;2023-02-23T11:21:29;3.38;;;2.67;;
70832;SDS011;58452;59.418;17.962;2023-02-23T11:24:19;5.32;;;3.00;;
70832;SDS011;58452;59.418;17.962;2023-02-23T11:26:49;6.47;;;3.10;;
70832;SDS011;58452;59.418;17.962;2023-02-23T11:31:46;6.43;;;3.65;;
70832;SDS011;58452;59.418;17.962;2023-02-23T11:34:31;6.95;;;4.30;;
70832;SDS011;58452;59.418;17.962;2023-02-23T11:37:01;5.53;;;3.17;;
70832;SDS011;58452;59.418;17.962;2023-02-23T11:39:29;10.23;;;4.10;;
70832;SDS011;58452;59.418;17.962;2023-02-23T11:44:41;5.03;;;3.25;;
70832;SDS011;58452;59.418;17.962;2023-02-23T11:47:13;9.38;;;3.80;;
70832;SDS011;58452;59.418;17.962;2023-02-23T11:49:43;6.68;;;3.90;;
70832;SDS011;58452;59.418;17.962;2023-02-23T11:52:19;6.70;;;3.58;;
70832;SDS011;58452;59.418;17.962;2023-02-23T11:55:10;7.28;;;3.80;;
70832;SDS011;58452;59.418;17.962;2023-02-23T11:57:39;4.90;;;3.25;;
70832;SDS011;58452;59.418;17.962;2023-02-23T12:00:10;8.25;;;3.75;;
70832;SDS011;58452;59.418;17.962;2023-02-23T12:02:44;16.67;;;6.20;;
70832;SDS011;58452;59.418;17.962;2023-02-23T12:05:17;7.63;;;3.67;;
70832;SDS011;58452;59.418;17.962;2023-02-23T12:08:11;5.28;;;3.42;;
70832;SDS011;58452;59.418;17.962;2023-02-23T12:10:54;6.43;;;3.17;;
70832;SDS011;58452;59.418;17.962;2023-02-23T12:13:33;5.70;;;3.83;;
70832;SDS011;58452;59.418;17.962;2023-02-23T12:16:25;6.75;;;4.35;;
70832;SDS011;58452;59.418;17.962;2023-02-23T12:21:59;6.10;;;3.53;;
70832;SDS011;58452;59.418;17.962;2023-02-23T12:35:23;6.55;;;4.18;;
70832;SDS011;58452;59.418;17.962;2023-02-23T12:38:04;5.07;;;3.72;;
70832;SDS011;58452;59.418;17.962;2023-02-23T12:40:39;7.30;;;3.88;;
70832;SDS011;58452;59.418;17.962;2023-02-23T12:43:13;6.28;;;4.18;;
70832;SDS011;58452;59.418;17.962;2023-02-23T12:45:49;8.55;;;4.07;;
70832;SDS011;58452;59.418;17.962;2023-02-23T12:50:49;7.97;;;4.53;;
70832;SDS011;58452;59.418;17.962;2023-02-23T12:53:19;9.68;;;4.43;;
70832;SDS011;58452;59.418;17.962;2023-02-23T12:58:23;6.45;;;3.97;;
70832;SDS011;58452;59.418;17.962;2023-02-23T13:01:03;7.10;;;4.23;;
70832;SDS011;58452;59.418;17.962;2023-02-23T13:28:14;7.63;;;4.70;;
70832;SDS011;58452;59.418;17.962;2023-02-23T13:30:44;6.38;;;4.28;;
70832;SDS011;58452;59.418;17.962;2023-02-23T13:33:19;9.68;;;5.60;;
70832;SDS011;58452;59.418;17.962;2023-02-23T13:35:59;5.68;;;4.15;;
70832;SDS011;58452;59.418;17.962;2023-02-23T13:44:22;8.73;;;5.50;;
70832;SDS011;58452;59.418;17.962;2023-02-23T13:46:59;8.43;;;4.22;;
70832;SDS011;58452;59.418;17.962;2023-02-23T13:54:52;14.55;;;6.28;;
70832;SDS011;58452;59.418;17.962;2023-02-23T13:57:21;9.70;;;5.00;;
70832;SDS011;58452;59.418;17.962;2023-02-23T13:59:48;9.55;;;5.50;;
70832;SDS011;58452;59.418;17.962;2023-02-23T14:02:19;7.28;;;5.00;;
70832;SDS011;58452;59.418;17.962;2023-02-23T14:08:03;8.30;;;4.85;;
70832;SDS011;58452;59.418;17.962;2023-02-23T14:10:36;7.07;;;4.40;;
70832;SDS011;58452;59.418;17.962;2023-02-23T14:18:26;8.60;;;5.72;;
70832;SDS011;58452;59.418;17.962;2023-02-23T14:28:33;6.07;;;4.47;;
70832;SDS011;58452;59.418;17.962;2023-02-23T14:36:01;12.32;;;5.82;;
70832;SDS011;58452;59.418;17.962;2023-02-23T14:41:22;7.68;;;4.82;;
70832;SDS011;58452;59.418;17.962;2023-02-23T14:43:58;12.88;;;5.90;;
70832;SDS011;58452;59.418;17.962;2023-02-23T14:46:30;9.13;;;5.40;;
70832;SDS011;58452;59.418;17.962;2023-02-23T14:49:00;9.57;;;5.32;;
70832;SDS011;58452;59.418;17.962;2023-02-23T14:57:00;9.10;;;5.00;;
70832;SDS011;58452;59.418;17.962;2023-02-23T14:59:28;6.82;;;4.43;;
70832;SDS011;58452;59.418;17.962;2023-02-23T15:02:06;7.03;;;4.15;;
70832;SDS011;58452;59.418;17.962;2023-02-23T15:04:41;5.85;;;4.20;;
70832;SDS011;58452;59.418;17.962;2023-02-23T15:07:09;6.63;;;3.72;;
70832;SDS011;58452;59.418;17.962;2023-02-23T15:09:42;7.22;;;3.72;;
70832;SDS011;58452;59.418;17.962;2023-02-23T15:14:50;5.57;;;4.07;;
70832;SDS011;58452;59.418;17.962;2023-02-23T15:17:21;5.72;;;3.67;;
70832;SDS011;58452;59.418;17.962;2023-02-23T15:19:53;6.78;;;4.05;;
70832;SDS011;58452;59.418;17.962;2023-02-23T15:24:54;5.07;;;3.78;;
70832;SDS011;58452;59.418;17.962;2023-02-23T15:27:23;7.97;;;3.88;;
70832;SDS011;58452;59.418;17.962;2023-02-23T15:29:53;8.63;;;3.50;;
70832;SDS011;58452;59.418;17.962;2023-02-23T15:32:23;5.53;;;3.75;;
70832;SDS011;58452;59.418;17.962;2023-02-23T15:34:53;6.20;;;4.43;;
70832;SDS011;58452;59.418;17.962;2023-02-23T15:39:57;6.15;;;4.00;;
70832;SDS011;58452;59.418;17.962;2023-02-23T15:43:09;7.38;;;3.83;;
70832;SDS011;58452;59.418;17.962;2023-02-23T15:48:14;21.13;;;5.75;;
70832;SDS011;58452;59.418;17.962;2023-02-23T15:50:55;4.88;;;3.60;;
70832;SDS011;58452;59.418;17.962;2023-02-23T15:53:34;6.20;;;4.05;;
70832;SDS011;58452;59.418;17.962;2023-02-23T15:56:03;4.22;;;3.25;;
70832;SDS011;58452;59.418;17.962;2023-02-23T15:58:31;4.90;;;3.92;;
70832;SDS011;58452;59.418;17.962;2023-02-23T16:01:09;8.00;;;3.95;;
70832;SDS011;58452;59.418;17.962;2023-02-23T16:03:38;4.95;;;3.70;;
70832;SDS011;58452;59.418;17.962;2023-02-23T16:06:47;5.65;;;3.75;;
70832;SDS011;58452;59.418;17.962;2023-02-23T16:09:23;7.20;;;4.25;;
70832;SDS011;58452;59.418;17.962;2023-02-23T16:14:18;6.07;;;4.07;;
70832;SDS011;58452;59.418;17.962;2023-02-23T16:16:45;5.97;;;4.03;;
70832;SDS011;58452;59.418;17.962;2023-02-23T16:19:14;13.65;;;5.68;;
70832;SDS011;58452;59.418;17.962;2023-02-23T16:21:42;11.55;;;5.20;;
70832;SDS011;58452;59.418;17.962;2023-02-23T16:24:13;6.57;;;5.35;;
70832;SDS011;58452;59.418;17.962;2023-02-23T16:26:47;6.95;;;5.32;;
70832;SDS011;58452;59.418;17.962;2023-02-23T16:29:20;7.53;;;5.10;;
70832;SDS011;58452;59.418;17.962;2023-02-23T16:32:17;10.48;;;6.50;;
70832;SDS011;58452;59.418;17.962;2023-02-23T16:34:47;8.70;;;7.03;;
70832;SDS011;58452;59.418;17.962;2023-02-23T16:37:14;9.25;;;6.35;;
70832;SDS011;58452;59.418;17.962;2023-02-23T16:39:42;10.15;;;5.40;;
70832;SDS011;58452;59.418;17.962;2023-02-23T16:42:10;11.38;;;7.20;;
70832;SDS011;58452;59.418;17.962;2023-02-23T16:44:41;7.88;;;5.47;;
70832;SDS011;58452;59.418;17.962;2023-02-23T16:49:33;8.70;;;5.47;;
70832;SDS011;58452;59.418;17.962;2023-02-23T16:51:59;9.68;;;4.57;;
70832;SDS011;58452;59.418;17.962;2023-02-23T16:54:25;11.40;;;5.70;;
70832;SDS011;58452;59.418;17.962;2023-02-23T16:56:52;12.65;;;6.32;;
70832;SDS011;58452;59.418;17.962;2023-02-23T16:59:19;9.55;;;5.18;;
70832;SDS011;58452;59.418;17.962;2023-02-23T17:01:46;7.00;;;4.57;;
70832;SDS011;58452;59.418;17.962;2023-02-23T17:04:14;7.05;;;5.13;;
70832;SDS011;58452;59.418;17.962;2023-02-23T17:06:43;7.75;;;4.75;;
70832;SDS011;58452;59.418;17.962;2023-02-23T17:09:16;8.57;;;5.07;;
70832;SDS011;58452;59.418;17.962;2023-02-23T17:11:42;8.13;;;4.80;;
70832;SDS011;58452;59.418;17.962;2023-02-23T17:14:13;9.18;;;5.22;;
70832;SDS011;58452;59.418;17.962;2023-02-23T17:16:47;7.32;;;4.88;;
70832;SDS011;58452;59.418;17.962;2023-02-23T17:19:13;14.15;;;6.45;;
70832;SDS011;58452;59.418;17.962;2023-02-23T17:21:39;7.50;;;4.82;;
70832;SDS011;58452;59.418;17.962;2023-02-23T17:24:05;7.70;;;4.72;;
70832;SDS011;58452;59.418;17.962;2023-02-23T17:26:30;9.75;;;4.57;;
70832;SDS011;58452;59.418;17.962;2023-02-23T17:28:56;7.63;;;5.28;;
70832;SDS011;58452;59.418;17.962;2023-02-23T17:31:21;8.52;;;4.50;;
70832;SDS011;58452;59.418;17.962;2023-02-23T17:33:47;6.95;;;4.60;;
70832;SDS011;58452;59.418;17.962;2023-02-23T17:36:14;7.22;;;4.50;;
70832;SDS011;58452;59.418;17.962;2023-02-23T17:38:41;7.93;;;4.85;;
70832;SDS011;58452;59.418;17.962;2023-02-23T17:41:09;6.97;;;4.75;;
70832;SDS011;58452;59.418;17.962;2023-02-23T17:43:41;5.85;;;4.07;;
70832;SDS011;58452;59.418;17.962;2023-02-23T17:46:06;7.72;;;4.85;;
70832;SDS011;58452;59.418;17.962;2023-02-23T17:48:32;10.70;;;5.72;;
70832;SDS011;58452;59.418;17.962;2023-02-23T17:51:00;8.70;;;5.43;;